Time;durP1;ratioP1;P1;durP2;ratioP2;P2;SDS_P1;SDS_P2;PMS_P1;PMS_P2;Temp;Humidity;BMP_temperature;BMP_pressure;BME280_temperature;BME280_humidity;BME280_pressure;Samples;Min_cycle;Max_cycle;Signal;HPM_P1;HPM_P2
2020/12/01 00:01:59;;;;;;;28.13;7.73;;;1.50;98.50;;;;;;10567173;27;80060;-72
2020/12/01 00:07:02;;;;;;;20.73;6.97;;;1.60;98.60;;;;;;10561665;27;80638;-72
2020/12/01 00:12:03;;;;;;;23.00;7.87;;;1.70;98.60;;;;;;10561203;27;80844;-72
2020/12/01 00:17:05;;;;;;;20.63;7.57;;;1.70;98.60;;;;;;10543534;27;80758;-72
2020/12/01 00:22:08;;;;;;;18.73;7.40;;;1.80;98.60;;;;;;10558346;27;80040;-73
2020/12/01 00:27:09;;;;;;;22.33;7.80;;;1.80;98.50;;;;;;10549681;27;81044;-72
2020/12/01 00:32:11;;;;;;;25.63;8.63;;;1.80;98.50;;;;;;10555123;27;81066;-72
2020/12/01 00:37:14;;;;;;;25.00;7.37;;;1.80;98.50;;;;;;10554594;27;81122;-72
2020/12/01 00:42:15;;;;;;;26.70;8.07;;;1.80;98.50;;;;;;10551398;27;81698;-72
2020/12/01 00:47:17;;;;;;;23.13;8.13;;;1.80;98.50;;;;;;10547096;27;81239;-72
2020/12/01 00:52:20;;;;;;;21.47;6.70;;;1.90;98.50;;;;;;10556502;27;82366;-73
2020/12/01 00:57:22;;;;;;;23.90;7.70;;;1.90;98.80;;;;;;10556634;27;81996;-72
2020/12/01 01:02:24;;;;;;;23.40;7.93;;;1.90;98.60;;;;;;10560965;27;83488;-72
2020/12/01 01:07:27;;;;;;;25.53;8.13;;;1.90;98.60;;;;;;10553556;27;80857;-72
2020/12/01 01:12:28;;;;;;;20.93;6.83;;;1.90;98.60;;;;;;10560732;27;81711;-72
2020/12/01 01:17:30;;;;;;;23.27;7.30;;;1.90;98.50;;;;;;10555349;27;81005;-72
2020/12/01 01:22:33;;;;;;;19.20;8.07;;;2.00;98.60;;;;;;10558966;27;82213;-73
2020/12/01 01:27:35;;;;;;;21.27;8.07;;;2.00;98.50;;;;;;10545637;27;81215;-73
2020/12/01 01:32:36;;;;;;;25.43;8.53;;;2.00;98.60;;;;;;10557797;27;80735;-72
2020/12/01 01:37:39;;;;;;;22.53;7.93;;;2.10;98.60;;;;;;10564908;27;80636;-72
2020/12/01 01:42:41;;;;;;;22.63;7.23;;;2.10;98.60;;;;;;10556039;27;84111;-73
2020/12/01 01:47:45;;;;;;;22.90;7.33;;;2.10;98.70;;;;;;10557639;27;80055;-72
2020/12/01 01:52:50;;;;;;;20.30;7.90;;;2.10;98.70;;;;;;10549537;27;81170;-73
2020/12/01 01:57:56;;;;;;;26.13;8.53;;;2.00;98.70;;;;;;10564401;27;81300;-72
2020/12/01 02:02:57;;;;;;;23.80;7.70;;;2.00;98.70;;;;;;10566654;27;80943;-73
2020/12/01 02:08:01;;;;;;;25.27;7.63;;;2.00;98.80;;;;;;10561751;27;80808;-72
2020/12/01 02:13:03;;;;;;;17.67;7.67;;;2.00;98.80;;;;;;10553778;27;84348;-73
2020/12/01 02:18:04;;;;;;;21.37;7.43;;;1.80;98.90;;;;;;10563922;27;81460;-73
2020/12/01 02:23:07;;;;;;;16.47;6.53;;;1.70;99.40;;;;;;10563658;27;82491;-73
2020/12/01 02:28:10;;;;;;;26.27;6.60;;;1.70;99.20;;;;;;10559404;27;82512;-73
2020/12/01 02:33:11;;;;;;;24.47;7.83;;;1.60;99.30;;;;;;10561883;27;82740;-73
2020/12/01 02:38:13;;;;;;;23.33;7.77;;;1.40;99.70;;;;;;10563724;27;82529;-73
2020/12/01 02:43:16;;;;;;;16.83;6.67;;;1.30;99.90;;;;;;10561162;27;83738;-73
2020/12/01 02:48:17;;;;;;;28.63;8.27;;;1.20;99.90;;;;;;10563612;27;84253;-72
2020/12/01 02:53:19;;;;;;;14.83;7.03;;;1.00;99.90;;;;;;10563467;27;83711;-72
2020/12/01 02:58:22;;;;;;;28.70;8.30;;;0.90;99.90;;;;;;10559948;27;82475;-72
2020/12/01 03:03:23;;;;;;;20.30;6.90;;;0.90;99.90;;;;;;10537697;27;83591;-73
2020/12/01 03:08:25;;;;;;;21.67;7.93;;;1.00;99.90;;;;;;10491122;27;83115;-73
2020/12/01 03:13:28;;;;;;;23.87;7.83;;;1.10;99.90;;;;;;10485705;27;83770;-73
2020/12/01 03:18:29;;;;;;;25.50;7.83;;;1.20;99.90;;;;;;10490513;27;85464;-72
2020/12/01 03:23:31;;;;;;;26.73;8.63;;;1.20;99.90;;;;;;10484789;27;84797;-73
2020/12/01 03:28:34;;;;;;;26.43;8.50;;;1.30;99.90;;;;;;10491218;27;83468;-73
2020/12/01 03:33:36;;;;;;;21.97;8.03;;;1.40;99.90;;;;;;10487180;27;84104;-73
2020/12/01 03:38:37;;;;;;;25.40;8.67;;;1.40;99.90;;;;;;10502658;27;83641;-73
2020/12/01 03:43:40;;;;;;;24.03;9.27;;;1.50;99.90;;;;;;10486399;27;84403;-73
2020/12/01 03:48:41;;;;;;;22.80;8.60;;;1.40;99.90;;;;;;10494363;27;83813;-72
2020/12/01 03:53:43;;;;;;;27.07;8.83;;;1.40;99.90;;;;;;10486972;27;83740;-73
2020/12/01 03:58:46;;;;;;;16.93;7.03;;;1.30;99.90;;;;;;10491590;27;83184;-73
2020/12/01 04:03:48;;;;;;;18.17;6.83;;;1.30;99.90;;;;;;10492908;27;83847;-73
2020/12/01 04:08:49;;;;;;;33.73;7.47;;;1.40;99.90;;;;;;10498504;27;83893;-73
2020/12/01 04:13:52;;;;;;;21.67;7.57;;;1.40;99.90;;;;;;10486821;27;84624;-73
2020/12/01 04:18:54;;;;;;;28.00;9.40;;;1.40;99.90;;;;;;10495936;27;83806;-72
2020/12/01 04:23:55;;;;;;;22.07;8.37;;;1.30;99.90;;;;;;10487071;27;84006;-72
2020/12/01 04:28:58;;;;;;;24.03;8.97;;;1.30;99.90;;;;;;10498602;27;84130;-72
2020/12/01 04:34:00;;;;;;;26.80;9.10;;;1.30;99.90;;;;;;10485915;27;85892;-73
2020/12/01 04:39:01;;;;;;;25.60;8.00;;;1.20;99.90;;;;;;10494453;27;83864;-73
2020/12/01 04:44:05;;;;;;;23.87;8.50;;;1.20;99.90;;;;;;10485749;27;84391;-73
2020/12/01 04:49:20;;;;;;;20.67;7.37;;;1.30;99.90;;;;;;10489350;27;83014;-72
2020/12/01 04:55:02;;;;;;;25.80;8.33;;;1.20;99.90;;;;;;10531319;27;83677;-73
2020/12/01 05:00:20;;;;;;;17.67;5.90;;;1.10;99.90;;;;;;10468799;27;83846;-72
2020/12/01 05:05:41;;;;;;;14.53;6.63;;;1.10;99.90;;;;;;10480338;27;85120;-72
2020/12/01 05:10:47;;;;;;;20.20;6.70;;;1.20;99.90;;;;;;10483224;27;83921;-71
2020/12/01 05:15:54;;;;;;;20.20;7.33;;;1.20;99.90;;;;;;10484550;27;83743;-71
2020/12/01 05:20:59;;;;;;;24.10;7.50;;;1.20;99.90;;;;;;10483731;27;83921;-72
2020/12/01 05:26:03;;;;;;;33.37;10.87;;;1.20;99.90;;;;;;10484536;27;83997;-71
2020/12/01 05:31:06;;;;;;;26.03;8.23;;;1.20;99.90;;;;;;10478994;27;84458;-72
2020/12/01 05:36:18;;;;;;;19.93;8.93;;;1.20;99.90;;;;;;10487251;27;84353;-72
2020/12/01 05:41:22;;;;;;;28.77;9.00;;;1.20;99.90;;;;;;10480734;27;84348;-72
2020/12/01 05:46:36;;;;;;;28.27;9.67;;;1.30;99.90;;;;;;10483360;27;83773;-72
2020/12/01 05:51:42;;;;;;;21.67;8.13;;;1.30;99.90;;;;;;10483354;27;83848;-71
2020/12/01 05:56:49;;;;;;;27.63;9.10;;;1.30;99.90;;;;;;10486050;27;84804;-72
2020/12/01 06:01:58;;;;;;;28.60;10.40;;;1.30;99.90;;;;;;10483009;27;82598;-73
2020/12/01 06:07:13;;;;;;;27.40;10.63;;;1.30;99.90;;;;;;10520352;27;85398;-71
2020/12/01 06:12:23;;;;;;;28.47;10.07;;;1.30;99.90;;;;;;10477798;27;84587;-72
2020/12/01 06:17:37;;;;;;;23.50;8.17;;;1.30;99.90;;;;;;10482154;27;84629;-72
2020/12/01 06:23:16;;;;;;;32.77;10.10;;;1.30;99.90;;;;;;10478798;27;84027;-73
2020/12/01 06:28:41;;;;;;;29.97;9.97;;;1.40;99.90;;;;;;10483099;27;85493;-72
2020/12/01 06:34:22;;;;;;;22.03;7.77;;;1.40;99.90;;;;;;10479383;27;84154;-72
2020/12/01 06:39:38;;;;;;;27.93;10.00;;;1.50;99.90;;;;;;10489437;27;83836;-73
2020/12/01 06:44:42;;;;;;;24.87;8.37;;;1.60;99.90;;;;;;10484123;27;84123;-73
2020/12/01 06:49:45;;;;;;;30.77;9.43;;;1.70;99.90;;;;;;10493040;27;85009;-72
2020/12/01 06:54:51;;;;;;;32.10;8.40;;;1.70;99.90;;;;;;10488658;27;84102;-72
2020/12/01 06:59:53;;;;;;;30.17;10.27;;;1.80;99.90;;;;;;10502355;27;83913;-73
2020/12/01 07:05:12;;;;;;;35.00;11.10;;;1.80;99.90;;;;;;10488236;27;84462;-72
2020/12/01 07:10:28;;;;;;;34.23;10.43;;;1.90;99.90;;;;;;10490483;27;85389;-73
2020/12/01 07:15:38;;;;;;;26.40;10.40;;;1.90;99.90;;;;;;10487607;27;84961;-72
2020/12/01 07:21:01;;;;;;;28.60;10.00;;;1.90;99.90;;;;;;10511612;27;85292;-72
2020/12/01 07:26:17;;;;;;;32.50;10.63;;;2.00;99.90;;;;;;10487635;27;84817;-72
2020/12/01 07:31:22;;;;;;;26.67;10.27;;;2.00;99.90;;;;;;10499105;27;84082;-72
2020/12/01 07:36:32;;;;;;;31.33;9.93;;;1.90;99.90;;;;;;10486841;27;84064;-72
2020/12/01 07:41:37;;;;;;;25.23;9.33;;;2.00;99.90;;;;;;10490185;27;84917;-71
2020/12/01 07:46:46;;;;;;;28.07;8.50;;;2.10;99.90;;;;;;10487257;27;84092;-71
2020/12/01 07:51:53;;;;;;;25.30;8.97;;;2.10;99.90;;;;;;10487898;27;83689;-72
2020/12/01 07:56:55;;;;;;;32.00;9.77;;;2.20;99.90;;;;;;10487856;27;83367;-72
2020/12/01 08:02:04;;;;;;;25.27;9.33;;;2.20;99.90;;;;;;10490683;27;83825;-72
2020/12/01 08:07:06;;;;;;;27.73;9.73;;;2.40;99.90;;;;;;10523553;27;83882;-73
2020/12/01 08:12:12;;;;;;;29.53;9.47;;;2.40;99.90;;;;;;10485516;27;84012;-73
2020/12/01 08:17:20;;;;;;;25.30;8.70;;;2.50;99.90;;;;;;10491544;27;83027;-73
2020/12/01 08:22:35;;;;;;;19.63;8.33;;;2.60;99.90;;;;;;10486725;27;84461;-73
2020/12/01 08:27:43;;;;;;;23.90;8.83;;;2.60;99.90;;;;;;10516172;27;85011;-72
2020/12/01 08:32:47;;;;;;;18.30;7.67;;;2.60;99.90;;;;;;10487789;27;84744;-73
2020/12/01 08:38:03;;;;;;;22.07;7.97;;;2.60;99.90;;;;;;10496310;27;84968;-73
2020/12/01 08:43:25;;;;;;;21.60;8.17;;;2.70;99.90;;;;;;10491906;27;83501;-74
2020/12/01 08:48:31;;;;;;;22.93;8.20;;;2.70;99.90;;;;;;10487654;27;83016;-74
2020/12/01 08:53:48;;;;;;;26.63;9.00;;;2.80;99.90;;;;;;10485567;27;83977;-73
2020/12/01 08:58:53;;;;;;;20.70;7.60;;;2.80;99.90;;;;;;10496754;27;83334;-73
2020/12/01 09:03:58;;;;;;;26.43;8.53;;;2.80;99.90;;;;;;10485935;27;83761;-73
2020/12/01 09:09:06;;;;;;;22.63;7.23;;;2.80;99.90;;;;;;10491838;27;82841;-73
2020/12/01 09:14:19;;;;;;;21.50;6.67;;;2.80;99.90;;;;;;10489666;27;83846;-73
2020/12/01 09:19:54;;;;;;;19.63;7.43;;;2.70;99.90;;;;;;10485493;27;84811;-73
2020/12/01 09:25:20;;;;;;;20.87;7.80;;;2.70;99.90;;;;;;10497941;27;84949;-73
2020/12/01 09:30:34;;;;;;;23.83;6.87;;;2.80;99.90;;;;;;10488017;27;83691;-73
2020/12/01 09:35:37;;;;;;;23.53;8.23;;;2.80;99.90;;;;;;10499474;27;84511;-73
2020/12/01 09:40:40;;;;;;;17.67;6.20;;;2.70;99.90;;;;;;10483432;27;83943;-74
2020/12/01 09:45:43;;;;;;;21.63;7.00;;;2.80;99.90;;;;;;10495237;27;83734;-73
2020/12/01 09:50:46;;;;;;;23.43;8.40;;;2.80;99.90;;;;;;10484699;27;83961;-73
2020/12/01 09:55:58;;;;;;;23.17;8.40;;;2.90;99.90;;;;;;10487896;27;84921;-73
2020/12/01 10:12:10;;;;;;;21.53;7.57;;;3.50;99.90;;;;;;10386340;28;82562;-73
2020/12/01 10:38:23;;;;;;;19.07;7.67;;;3.50;99.90;;;;;;10426162;27;80500;-72
2020/12/01 10:43:25;;;;;;;27.67;8.10;;;3.40;99.90;;;;;;10438095;27;81330;-73
2020/12/01 10:48:27;;;;;;;25.90;8.90;;;3.20;99.90;;;;;;10435975;27;81060;-73
2020/12/01 10:53:29;;;;;;;19.10;7.43;;;3.20;99.90;;;;;;10451276;27;80521;-75
2020/12/01 10:58:30;;;;;;;23.87;7.67;;;3.30;99.90;;;;;;10421837;27;80815;-74
2020/12/01 11:03:33;;;;;;;16.80;6.93;;;3.20;99.90;;;;;;10423057;27;81551;-75
2020/12/01 11:08:34;;;;;;;21.70;7.63;;;3.00;99.90;;;;;;10439928;27;81729;-74
2020/12/01 11:13:36;;;;;;;20.17;7.73;;;3.00;99.90;;;;;;10447990;27;80715;-74
2020/12/01 11:18:39;;;;;;;24.73;8.73;;;3.00;99.90;;;;;;10422470;27;80975;-74
2020/12/01 11:23:41;;;;;;;27.00;8.50;;;3.20;99.90;;;;;;10417318;28;80890;-74
2020/12/01 11:28:43;;;;;;;23.67;7.70;;;3.20;99.90;;;;;;10418434;27;80961;-74
2020/12/01 11:33:59;;;;;;;20.63;8.50;;;3.30;99.90;;;;;;10400039;28;81155;-74
2020/12/01 11:39:01;;;;;;;23.97;7.80;;;3.20;99.90;;;;;;10380770;28;82129;-74
2020/12/01 11:44:03;;;;;;;25.27;8.97;;;3.10;99.90;;;;;;10367738;28;81927;-74
2020/12/01 11:49:06;;;;;;;24.83;8.53;;;3.20;99.90;;;;;;10377470;28;80974;-73
2020/12/01 11:54:10;;;;;;;26.53;8.97;;;3.20;99.90;;;;;;10370129;28;82546;-73
2020/12/01 11:59:14;;;;;;;20.07;7.03;;;3.20;99.90;;;;;;10393490;28;80117;-73
2020/12/01 12:04:17;;;;;;;22.93;6.87;;;3.10;99.90;;;;;;10393665;28;80840;-74
2020/12/01 12:09:19;;;;;;;22.37;6.97;;;3.00;99.90;;;;;;10386889;28;80765;-74
2020/12/01 12:14:20;;;;;;;23.00;7.73;;;2.90;99.90;;;;;;10399453;28;81285;-74
2020/12/01 12:19:23;;;;;;;19.37;7.70;;;2.80;99.90;;;;;;10399578;28;80818;-75
2020/12/01 12:24:25;;;;;;;18.20;6.60;;;2.80;99.90;;;;;;10400736;28;81713;-73
2020/12/01 12:29:26;;;;;;;19.27;7.53;;;2.90;99.90;;;;;;10399881;28;81319;-73
2020/12/01 12:34:29;;;;;;;21.93;7.77;;;3.00;99.90;;;;;;10392289;28;82102;-74
2020/12/01 12:39:31;;;;;;;19.10;7.03;;;3.00;99.90;;;;;;10379541;28;80807;-74
2020/12/01 12:44:32;;;;;;;15.30;5.57;;;3.00;99.90;;;;;;10398124;28;80726;-74
2020/12/01 12:49:35;;;;;;;19.83;6.67;;;2.90;99.90;;;;;;10396034;28;81924;-74
2020/12/01 12:54:37;;;;;;;18.87;6.83;;;2.80;99.90;;;;;;10384848;28;81018;-74
2020/12/01 12:59:39;;;;;;;15.47;6.23;;;2.90;99.90;;;;;;10388381;28;81557;-74
2020/12/01 13:04:41;;;;;;;20.20;6.63;;;2.80;99.90;;;;;;10398532;28;81100;-74
2020/12/01 13:09:43;;;;;;;15.00;6.13;;;2.70;99.90;;;;;;10396104;28;81030;-74
2020/12/01 13:14:44;;;;;;;13.00;5.73;;;2.60;99.90;;;;;;10397941;28;80714;-74
2020/12/01 13:19:47;;;;;;;12.03;5.47;;;2.70;99.90;;;;;;10398422;28;80963;-75
2020/12/01 13:24:49;;;;;;;14.63;6.73;;;2.60;99.90;;;;;;10387774;28;81304;-74
2020/12/01 13:29:50;;;;;;;15.03;6.13;;;2.60;99.90;;;;;;10393226;28;81649;-74
2020/12/01 13:34:53;;;;;;;18.07;6.23;;;2.60;99.90;;;;;;10396216;28;80808;-74
2020/12/01 13:39:54;;;;;;;18.00;5.87;;;2.60;99.90;;;;;;10392759;28;80812;-75
2020/12/01 13:44:56;;;;;;;16.23;5.93;;;2.60;99.90;;;;;;10387552;28;82735;-74
2020/12/01 13:49:59;;;;;;;17.53;6.33;;;2.50;99.90;;;;;;10397354;28;81316;-74
2020/12/01 13:55:01;;;;;;;13.87;6.03;;;2.50;99.90;;;;;;10389688;28;81136;-75
2020/12/01 14:00:06;;;;;;;15.57;6.47;;;2.40;99.90;;;;;;10397796;28;80515;-74
2020/12/01 14:05:11;;;;;;;12.27;5.57;;;2.40;99.90;;;;;;10396916;28;81843;-74
2020/12/01 14:10:14;;;;;;;12.97;5.10;;;2.50;99.90;;;;;;10397468;28;81341;-74
2020/12/01 14:15:15;;;;;;;13.70;5.47;;;2.60;99.90;;;;;;10392466;28;80963;-74
2020/12/01 14:20:19;;;;;;;13.53;5.47;;;2.70;99.90;;;;;;10394437;28;80638;-74
2020/12/01 14:25:21;;;;;;;12.53;4.87;;;2.80;99.90;;;;;;10382686;28;83846;-73
2020/12/01 14:30:24;;;;;;;15.57;5.47;;;2.70;99.90;;;;;;10389108;28;81510;-74
2020/12/01 14:35:26;;;;;;;19.50;7.17;;;2.70;99.90;;;;;;10386286;28;80963;-73
2020/12/01 14:40:28;;;;;;;13.77;5.47;;;2.70;99.90;;;;;;10386450;28;81044;-75
2020/12/01 14:45:31;;;;;;;14.17;5.77;;;2.60;99.90;;;;;;10381483;28;81077;-73
2020/12/01 14:51:04;;;;;;;13.20;5.63;;;2.70;99.90;;;;;;10393104;28;80695;-74
2020/12/01 14:56:23;;;;;;;13.33;5.27;;;2.60;99.90;;;;;;10381163;28;82754;-74
2020/12/01 15:01:36;;;;;;;11.33;5.90;;;2.50;99.90;;;;;;10390346;28;82726;-73
2020/12/01 15:07:11;;;;;;;16.13;5.67;;;2.40;99.90;;;;;;10392496;27;80001;-74
2020/12/01 15:12:34;;;;;;;12.40;5.93;;;2.30;99.90;;;;;;10390839;28;81968;-73
2020/12/01 15:17:36;;;;;;;17.50;4.97;;;2.30;99.90;;;;;;10397628;28;81049;-74
2020/12/01 15:22:48;;;;;;;10.80;4.97;;;2.40;99.90;;;;;;10395370;28;81303;-74
2020/12/01 15:27:55;;;;;;;12.27;4.97;;;2.50;99.90;;;;;;10394094;28;81534;-74
2020/12/01 15:32:58;;;;;;;13.43;5.97;;;2.50;99.90;;;;;;10395919;28;81349;-73
2020/12/01 15:38:06;;;;;;;10.50;4.67;;;2.50;99.90;;;;;;10390152;28;80331;-73
2020/12/01 15:43:14;;;;;;;13.53;4.60;;;2.50;99.90;;;;;;10384845;28;82160;-74
2020/12/01 15:48:19;;;;;;;15.53;5.70;;;2.50;99.90;;;;;;10391054;28;81414;-74
2020/12/01 15:53:40;;;;;;;13.93;6.30;;;2.50;99.90;;;;;;10390833;28;80928;-75
2020/12/01 15:59:23;;;;;;;13.97;6.87;;;2.50;99.90;;;;;;10371517;28;80957;-74
2020/12/01 16:05:01;;;;;;;14.90;6.00;;;2.50;99.90;;;;;;10384771;28;80703;-74
2020/12/01 16:10:17;;;;;;;16.57;6.47;;;2.50;99.90;;;;;;10395212;28;81308;-74
2020/12/01 16:15:48;;;;;;;13.03;5.70;;;2.50;99.90;;;;;;10386843;28;83257;-74
2020/12/01 16:21:28;;;;;;;20.70;6.40;;;2.50;99.90;;;;;;10397205;28;80309;-78
2020/12/01 16:26:51;;;;;;;13.57;5.30;;;2.50;99.90;;;;;;10371050;28;80862;-77
2020/12/01 16:31:53;;;;;;;16.40;6.20;;;2.50;99.90;;;;;;10383800;28;82295;-76
2020/12/01 16:37:18;;;;;;;12.37;5.50;;;2.50;99.90;;;;;;10378460;28;80703;-77
2020/12/01 16:42:31;;;;;;;12.07;6.03;;;2.50;99.90;;;;;;10381875;28;80839;-78
2020/12/01 16:47:51;;;;;;;17.03;6.97;;;2.40;99.90;;;;;;10378509;28;81944;-75
2020/12/01 16:53:35;;;;;;;13.73;6.23;;;2.40;99.90;;;;;;10376605;28;83061;-73
2020/12/01 16:58:55;;;;;;;17.80;7.47;;;2.50;99.90;;;;;;10376753;28;82520;-75
2020/12/01 17:04:38;;;;;;;15.97;6.73;;;2.50;99.90;;;;;;10374423;28;80886;-75
2020/12/01 17:09:47;;;;;;;13.07;5.97;;;2.50;99.90;;;;;;10204870;28;80972;-74
2020/12/01 17:15:04;;;;;;;17.33;6.57;;;2.50;99.90;;;;;;10205961;28;82990;-74
2020/12/01 17:20:07;;;;;;;12.43;6.13;;;2.40;99.90;;;;;;10209613;28;80994;-75
2020/12/01 17:25:16;;;;;;;15.30;6.40;;;2.40;99.90;;;;;;10207296;28;80972;-74
2020/12/01 17:30:39;;;;;;;15.10;6.70;;;2.50;99.90;;;;;;10206409;28;81836;-74
2020/12/01 17:35:48;;;;;;;17.90;7.23;;;2.60;99.90;;;;;;10208374;28;81028;-74
2020/12/01 17:40:59;;;;;;;13.33;5.23;;;2.60;99.90;;;;;;10206922;28;81873;-74
2020/12/01 17:46:10;;;;;;;12.47;6.27;;;2.60;99.90;;;;;;10305091;28;81390;-73
2020/12/01 17:51:18;;;;;;;12.97;5.53;;;2.60;99.90;;;;;;10375209;28;83870;-74
2020/12/01 17:56:21;;;;;;;14.47;6.03;;;2.50;99.90;;;;;;10371589;28;81322;-75
2020/12/01 18:01:24;;;;;;;12.63;6.00;;;2.60;99.90;;;;;;10365878;28;82570;-74
2020/12/01 18:06:27;;;;;;;12.73;5.93;;;2.60;99.90;;;;;;10370797;28;81172;-74
2020/12/01 18:11:40;;;;;;;12.50;5.57;;;2.60;99.90;;;;;;10370063;28;81758;-75
2020/12/01 18:17:09;;;;;;;12.43;5.47;;;2.70;99.90;;;;;;10360201;28;82044;-76
2020/12/01 18:22:17;;;;;;;14.73;6.60;;;2.70;99.90;;;;;;10371428;28;82596;-77
2020/12/01 18:27:23;;;;;;;13.10;5.97;;;2.70;99.90;;;;;;10371232;28;81739;-77
2020/12/01 18:32:38;;;;;;;14.10;5.30;;;2.70;99.90;;;;;;10364042;28;81801;-75
2020/12/01 18:37:43;;;;;;;13.63;5.83;;;2.70;99.90;;;;;;10371507;28;80408;-75
2020/12/01 18:42:52;;;;;;;14.13;5.80;;;2.70;99.90;;;;;;10374108;28;83002;-75
2020/12/01 18:47:54;;;;;;;14.07;6.37;;;2.70;99.90;;;;;;10375616;28;81120;-75
2020/12/01 18:53:11;;;;;;;17.47;6.63;;;2.70;99.90;;;;;;10373416;28;81427;-75
2020/12/01 18:58:16;;;;;;;14.33;7.03;;;2.80;99.90;;;;;;10374751;28;83439;-76
2020/12/01 19:03:23;;;;;;;11.77;5.50;;;2.70;99.90;;;;;;10374566;28;81506;-75
2020/12/01 19:08:25;;;;;;;16.33;6.33;;;2.70;99.90;;;;;;10372017;28;83043;-75
2020/12/01 19:13:28;;;;;;;15.77;6.40;;;2.80;99.90;;;;;;10374296;28;82443;-74
2020/12/01 19:18:31;;;;;;;15.37;6.43;;;2.80;99.90;;;;;;10374603;28;82825;-76
2020/12/01 19:23:33;;;;;;;16.90;6.20;;;2.80;99.90;;;;;;10375148;28;83133;-77
2020/12/01 19:28:35;;;;;;;18.43;6.97;;;2.80;99.90;;;;;;10376192;28;83664;-75
2020/12/01 19:33:37;;;;;;;20.87;7.53;;;2.80;99.90;;;;;;10378914;28;82457;-75
2020/12/01 19:38:39;;;;;;;23.50;8.30;;;2.80;99.90;;;;;;10377094;28;82414;-75
2020/12/01 19:43:44;;;;;;;30.33;9.07;;;2.80;99.90;;;;;;10378886;28;82529;-77
2020/12/01 19:48:47;;;;;;;25.67;9.90;;;2.80;99.90;;;;;;10375212;28;83246;-79
2020/12/01 19:53:49;;;;;;;24.03;8.07;;;2.80;99.90;;;;;;10376430;28;83055;-77
2020/12/01 19:58:50;;;;;;;22.17;8.80;;;2.80;99.90;;;;;;10375710;28;83577;-76
2020/12/01 20:03:53;;;;;;;20.53;7.30;;;2.80;99.90;;;;;;10377301;28;81987;-77
2020/12/01 20:08:55;;;;;;;17.23;6.50;;;2.90;99.90;;;;;;10375778;28;84050;-77
2020/12/01 20:13:59;;;;;;;20.63;8.23;;;2.90;99.90;;;;;;10374996;28;82383;-76
2020/12/01 20:19:01;;;;;;;19.70;7.90;;;2.90;99.90;;;;;;10373328;28;83381;-78
2020/12/01 20:24:03;;;;;;;19.90;8.37;;;2.90;99.90;;;;;;10371866;28;83092;-78
2020/12/01 20:29:05;;;;;;;26.50;8.07;;;2.90;99.90;;;;;;10371786;28;84946;-78
2020/12/01 20:34:08;;;;;;;19.80;7.23;;;2.90;99.90;;;;;;10374935;28;82711;-78
2020/12/01 20:39:58;;;;;;;16.87;6.90;;;2.90;99.90;;;;;;10373870;28;83069;-79
2020/12/01 20:45:01;;;;;;;22.70;8.13;;;2.80;99.90;;;;;;10371758;28;82726;-78
2020/12/01 20:50:06;;;;;;;20.70;8.00;;;2.80;99.90;;;;;;10366807;28;85398;-77
2020/12/01 20:55:08;;;;;;;21.47;7.97;;;2.80;99.90;;;;;;10373349;28;83107;-78
2020/12/01 21:00:12;;;;;;;19.80;8.10;;;2.80;99.90;;;;;;10373128;28;82821;-77
2020/12/01 21:05:15;;;;;;;19.60;7.47;;;2.80;99.90;;;;;;10371004;28;83407;-75
2020/12/01 21:10:20;;;;;;;21.27;7.50;;;2.80;99.90;;;;;;10370530;28;84703;-77
2020/12/01 21:15:24;;;;;;;26.03;8.87;;;2.80;99.90;;;;;;10373958;28;83072;-76
2020/12/01 21:20:26;;;;;;;20.70;7.17;;;2.80;99.90;;;;;;10373500;28;82555;-75
2020/12/01 21:25:28;;;;;;;32.17;7.63;;;2.70;99.90;;;;;;10373059;28;83148;-75
2020/12/01 21:30:40;;;;;;;27.03;6.93;;;2.70;99.90;;;;;;10374552;28;82983;-77
2020/12/01 21:35:42;;;;;;;16.27;7.00;;;2.70;99.90;;;;;;10373542;28;83680;-76
2020/12/01 21:40:44;;;;;;;16.07;6.50;;;2.70;99.90;;;;;;10371223;28;82649;-76
2020/12/01 21:45:46;;;;;;;18.47;7.17;;;2.70;99.90;;;;;;10371224;28;81930;-76
2020/12/01 21:50:49;;;;;;;17.57;6.43;;;2.60;99.90;;;;;;10367996;28;85189;-78
2020/12/01 21:56:16;;;;;;;14.50;6.47;;;2.60;99.90;;;;;;10368175;28;82813;-79
2020/12/01 22:01:34;;;;;;;16.20;6.93;;;2.60;99.90;;;;;;10369561;28;84865;-78
2020/12/01 22:07:07;;;;;;;13.17;6.87;;;2.70;99.90;;;;;;10370917;28;82434;-78
2020/12/01 22:12:23;;;;;;;20.37;7.80;;;2.70;99.90;;;;;;10370293;28;82122;-77
2020/12/01 22:17:29;;;;;;;20.17;7.00;;;2.70;99.90;;;;;;10368941;28;82682;-78
2020/12/01 22:23:11;;;;;;;22.03;7.03;;;2.70;99.90;;;;;;10371342;28;83644;-77
2020/12/01 22:28:36;;;;;;;18.30;7.20;;;2.70;99.90;;;;;;10370812;28;82822;-77
2020/12/01 22:34:13;;;;;;;24.43;9.37;;;2.80;99.90;;;;;;10368592;28;82732;-77
2020/12/01 22:39:18;;;;;;;26.70;8.27;;;2.80;99.90;;;;;;10365698;28;81987;-76
2020/12/01 22:44:50;;;;;;;31.77;9.27;;;2.80;99.90;;;;;;10356682;28;83141;-74
2020/12/01 22:50:09;;;;;;;20.10;8.73;;;2.90;99.90;;;;;;10354463;28;83455;-76
2020/12/01 22:55:27;;;;;;;19.10;7.07;;;2.90;99.90;;;;;;10360955;28;84758;-76
2020/12/01 23:00:38;;;;;;;18.57;7.70;;;2.90;99.90;;;;;;10367767;28;82524;-76
2020/12/01 23:05:39;;;;;;;19.40;7.67;;;2.90;99.90;;;;;;10369698;28;83046;-77
2020/12/01 23:10:48;;;;;;;22.97;7.83;;;2.90;99.90;;;;;;10370572;28;82679;-76
2020/12/01 23:15:51;;;;;;;23.10;7.67;;;2.80;99.90;;;;;;10371752;28;82527;-76
2020/12/01 23:20:52;;;;;;;19.37;6.53;;;2.80;99.90;;;;;;10371584;28;82451;-76
2020/12/01 23:26:02;;;;;;;18.00;7.27;;;2.80;99.90;;;;;;10371998;28;82865;-77
2020/12/01 23:31:04;;;;;;;21.23;9.03;;;2.70;99.90;;;;;;10380338;28;81939;-75
2020/12/01 23:36:08;;;;;;;23.73;7.13;;;2.60;99.90;;;;;;10379483;28;83714;-77
2020/12/01 23:41:19;;;;;;;20.17;7.30;;;2.60;99.90;;;;;;10378981;28;83050;-76
2020/12/01 23:46:29;;;;;;;18.37;7.57;;;2.60;99.90;;;;;;10376619;28;83445;-76
2020/12/01 23:51:33;;;;;;;23.37;7.27;;;2.60;99.90;;;;;;10376663;28;82553;-76
2020/12/01 23:56:37;;;;;;;14.33;6.63;;;2.60;99.90;;;;;;10376578;28;82528;-75
